Terminal Aerodrome Forecast
Issued by NWS Charleston, WV

Home | Current Version | Previous Version | Text Only | Print | Product List | Glossary On
Versions: 1 2 3 4 5 6 7 8 9 10 11 12 13 14 15 16 17 18 19 20 21 22 23 24
935
FTUS41 KRLX 242322
TAFPKB
TAF
KPKB 242322Z 2500/2524 27004KT P6SM SKC
     FM250200 00000KT P6SM SKC
     FM251230 VRB02KT P6SM SCT250
     FM251600 22004KT P6SM SCT050
     FM252000 23006KT P6SM BKN050=

USA.gov is the U.S. government's official web portal to all federal, state and local government web resources and services.